createdAt,value
2023-03-24T00:00:14.559Z,91.11
2023-03-24T00:02:42.809Z,91.16
2023-03-24T00:05:12.129Z,91.19
2023-03-24T00:07:39.923Z,91.10
2023-03-24T00:10:13.411Z,91.59
2023-03-24T00:12:40.108Z,91.66
2023-03-24T00:15:08.795Z,91.83
2023-03-24T00:17:36.989Z,91.84
2023-03-24T00:20:16.237Z,91.79
2023-03-24T00:22:48.750Z,91.80
2023-03-24T00:25:19.505Z,91.99
2023-03-24T00:27:49.086Z,92.54
2023-03-24T00:30:17.768Z,92.63
2023-03-24T00:32:46.464Z,92.93
2023-03-24T00:35:16.810Z,92.58
2023-03-24T00:37:45.102Z,92.79
2023-03-24T00:40:17.665Z,92.74
2023-03-24T00:42:46.927Z,92.65
2023-03-24T00:45:18.365Z,92.65
2023-03-24T00:47:45.323Z,92.44
2023-03-24T00:50:16.060Z,92.55
2023-03-24T00:52:44.464Z,92.42
2023-03-24T00:55:16.183Z,92.64
2023-03-24T00:57:51.289Z,93.18
2023-03-24T01:00:24.613Z,92.63
2023-03-24T01:02:54.144Z,92.56
2023-03-24T01:05:28.540Z,92.72
2023-03-24T01:08:03.315Z,92.96
2023-03-24T01:10:50.904Z,93.10
2023-03-24T01:13:19.086Z,93.09
2023-03-24T01:15:45.901Z,93.33
2023-03-24T01:18:14.939Z,93.37
2023-03-24T01:20:46.868Z,93.41
2023-03-24T01:23:16.533Z,93.69
2023-03-24T01:25:45.624Z,93.90
2023-03-24T01:28:13.837Z,94.26
2023-03-24T01:30:40.893Z,94.13
2023-03-24T01:33:07.923Z,94.22
2023-03-24T01:35:35.230Z,94.11
2023-03-24T01:38:06.624Z,94.13
2023-03-24T01:40:35.428Z,94.29
2023-03-24T01:43:02.202Z,94.62
2023-03-24T01:46:03.553Z,94.65
2023-03-24T01:49:01.793Z,94.37
2023-03-24T01:51:40.137Z,94.37
2023-03-24T01:54:41.086Z,94.09
2023-03-24T01:57:16.965Z,94.28
2023-03-24T01:59:48.930Z,94.59
2023-03-24T02:02:17.185Z,94.48
2023-03-24T02:04:48.579Z,94.61
2023-03-24T02:07:38.517Z,94.13
2023-03-24T02:10:13.482Z,94.57
2023-03-24T02:15:10.445Z,94.25
2023-03-24T02:17:58.416Z,94.84
2023-03-24T02:20:37.391Z,95.56
2023-03-24T02:23:45.545Z,95.89
2023-03-24T02:26:26.810Z,96.05
2023-03-24T02:29:28.169Z,95.56
2023-03-24T02:32:27.440Z,95.67
2023-03-24T02:35:21.573Z,95.62
2023-03-24T02:38:22.963Z,95.91
2023-03-24T02:41:20.664Z,95.89
2023-03-24T02:43:58.533Z,95.71
2023-03-24T02:46:30.095Z,95.92
2023-03-24T02:49:02.700Z,96.44
2023-03-24T02:51:45.563Z,96.14
2023-03-24T02:54:29.429Z,95.71
2023-03-24T02:57:05.126Z,95.46
2023-03-24T02:59:47.916Z,95.00
2023-03-24T03:02:18.742Z,95.23
2023-03-24T03:04:50.259Z,95.02
2023-03-24T03:07:22.075Z,94.97
2023-03-24T03:10:02.847Z,94.83
2023-03-24T03:12:34.602Z,94.68
2023-03-24T03:15:06.367Z,94.17
2023-03-24T03:17:41.577Z,93.47
2023-03-24T03:20:15.536Z,93.33
2023-03-24T03:22:50.357Z,93.04
2023-03-24T03:25:23.573Z,92.82
2023-03-24T03:27:53.684Z,92.10
2023-03-24T03:30:30.288Z,91.26
2023-03-24T03:33:04.269Z,91.25
2023-03-24T03:35:37.111Z,89.92
2023-03-24T03:38:15.823Z,89.14
2023-03-24T03:40:51.575Z,88.75
2023-03-24T03:43:19.027Z,88.88
2023-03-24T03:45:46.428Z,88.66
2023-03-24T03:48:13.992Z,88.24
2023-03-24T03:50:40.772Z,88.18
2023-03-24T03:53:08.580Z,87.85
2023-03-24T03:55:36.262Z,87.93
2023-03-24T03:58:04.546Z,88.34
2023-03-24T04:00:32.023Z,88.30
2023-03-24T04:03:30.389Z,88.94
2023-03-24T04:06:25.439Z,88.89
2023-03-24T04:09:02.145Z,90.25
2023-03-24T04:11:42.597Z,91.18
2023-03-24T04:14:21.644Z,91.76
2023-03-24T04:16:51.187Z,91.26
2023-03-24T04:19:32.627Z,90.92
2023-03-24T04:22:24.381Z,91.03
2023-03-24T04:24:51.174Z,89.77
2023-03-24T04:27:57.269Z,90.46
2023-03-24T04:30:33.125Z,90.70
2023-03-24T04:33:30.455Z,90.37
2023-03-24T04:36:19.279Z,91.56
2023-03-24T04:38:50.594Z,90.92
2023-03-24T04:41:20.601Z,91.01
2023-03-24T04:43:50.741Z,90.98
2023-03-24T04:46:21.135Z,91.24
2023-03-24T04:48:51.071Z,90.80
2023-03-24T04:51:19.686Z,89.78
2023-03-24T04:53:46.924Z,89.90
2023-03-24T04:56:36.508Z,88.62
2023-03-24T04:59:03.284Z,88.73
2023-03-24T05:01:30.550Z,87.42
2023-03-24T05:03:58.809Z,84.78
2023-03-24T05:06:26.422Z,83.42
2023-03-24T05:08:57.845Z,82.03
2023-03-24T05:11:25.399Z,80.56
2023-03-24T05:13:52.409Z,79.99
2023-03-24T05:16:19.098Z,80.17
2023-03-24T05:18:45.743Z,79.91
2023-03-24T05:21:15.601Z,79.77
2023-03-24T05:23:42.245Z,78.81
2023-03-24T05:26:09.354Z,78.56
2023-03-24T05:28:36.432Z,78.07
2023-03-24T05:31:03.354Z,78.14
2023-03-24T05:33:30.214Z,78.19
2023-03-24T05:35:57.102Z,78.53
2023-03-24T05:38:23.906Z,78.16
2023-03-24T05:40:50.739Z,78.24
2023-03-24T05:43:17.384Z,78.36
2023-03-24T05:45:44.274Z,78.04
2023-03-24T05:48:11.177Z,77.50
2023-03-24T05:50:38.080Z,77.47
2023-03-24T05:53:04.724Z,77.32
2023-03-24T05:55:32.130Z,77.24
2023-03-24T05:58:02.526Z,76.55
2023-03-24T06:00:33.594Z,76.38
2023-03-24T06:03:01.357Z,75.75
2023-03-24T06:05:29.167Z,76.14
2023-03-24T06:07:58.959Z,76.41
2023-03-24T06:10:27.995Z,75.92
2023-03-24T06:12:55.985Z,75.83
2023-03-24T06:15:28.118Z,75.59
2023-03-24T06:17:55.472Z,75.48
2023-03-24T06:20:22.655Z,75.56
2023-03-24T06:22:49.966Z,75.42
2023-03-24T06:25:20.408Z,75.45
2023-03-24T06:27:49.806Z,75.56
2023-03-24T06:30:18.142Z,76.33
2023-03-24T06:32:48.264Z,76.15
2023-03-24T06:35:16.182Z,76.41
2023-03-24T06:37:43.083Z,76.46
2023-03-24T06:40:15.768Z,76.71
2023-03-24T06:42:42.440Z,76.79
2023-03-24T06:45:09.866Z,77.01
2023-03-24T06:47:36.711Z,75.39
2023-03-24T06:50:04.242Z,74.19
2023-03-24T06:52:31.097Z,73.76
2023-03-24T06:54:58.380Z,73.23
2023-03-24T06:57:25.034Z,72.92
2023-03-24T06:59:51.622Z,73.15
2023-03-24T07:02:18.621Z,72.88
2023-03-24T07:04:46.000Z,72.80
2023-03-24T07:07:44.877Z,73.21
2023-03-24T07:09:59.966Z,73.87
2023-03-24T07:12:26.753Z,73.73
2023-03-24T07:14:53.385Z,73.06
2023-03-24T07:17:19.990Z,72.77
2023-03-24T07:19:46.619Z,71.85
2023-03-24T07:22:13.797Z,71.44
2023-03-24T07:24:40.803Z,71.27
2023-03-24T07:27:08.104Z,70.23
2023-03-24T07:29:34.742Z,71.68
2023-03-24T07:32:02.362Z,70.42
2023-03-24T07:34:29.262Z,69.92
2023-03-24T07:36:56.527Z,69.97
2023-03-24T07:39:23.815Z,69.14
2023-03-24T07:41:50.548Z,69.70
2023-03-24T07:44:17.127Z,68.93
2023-03-24T07:46:43.832Z,69.01
2023-03-24T07:49:18.656Z,68.24
2023-03-24T07:51:46.489Z,68.77
2023-03-24T07:54:13.125Z,69.79
2023-03-24T07:56:40.653Z,69.11
2023-03-24T07:59:07.903Z,68.47
2023-03-24T08:01:37.108Z,68.13
2023-03-24T08:04:06.608Z,68.03
2023-03-24T08:06:33.526Z,67.28
2023-03-24T08:09:00.211Z,67.78
2023-03-24T08:11:27.254Z,68.02
2023-03-24T08:13:53.880Z,67.89
2023-03-24T08:16:21.944Z,67.97
2023-03-24T08:18:48.951Z,68.08
2023-03-24T08:21:15.767Z,68.52
2023-03-24T08:23:42.955Z,68.75
2023-03-24T08:26:10.897Z,68.35
2023-03-24T08:28:37.836Z,69.07
2023-03-24T08:31:05.147Z,69.90
2023-03-24T08:33:32.108Z,69.35
2023-03-24T08:36:00.972Z,68.92
2023-03-24T08:38:31.162Z,68.82
2023-03-24T08:41:02.326Z,69.24
2023-03-24T08:43:30.853Z,69.49
2023-03-24T08:45:58.867Z,69.55
2023-03-24T08:48:26.546Z,68.87
2023-03-24T08:50:53.482Z,67.89
2023-03-24T08:53:20.802Z,67.12
2023-03-24T08:55:48.375Z,67.48
2023-03-24T08:58:17.746Z,67.18
2023-03-24T09:00:46.560Z,66.69
2023-03-24T09:03:18.666Z,66.40
2023-03-24T09:05:47.879Z,66.57
2023-03-24T09:08:17.773Z,66.47
2023-03-24T09:10:47.169Z,65.88
2023-03-24T09:13:14.007Z,65.68
2023-03-24T09:15:45.438Z,66.07
2023-03-24T09:18:12.896Z,65.74
2023-03-24T09:20:39.564Z,65.66
2023-03-24T09:23:06.611Z,65.35
2023-03-24T09:25:33.197Z,66.01
2023-03-24T09:28:00.943Z,65.75
2023-03-24T09:30:30.097Z,65.42
2023-03-24T09:32:59.181Z,65.48
2023-03-24T09:35:27.433Z,64.62
2023-03-24T09:37:56.600Z,63.76
2023-03-24T09:40:31.732Z,64.29
2023-03-24T09:43:32.526Z,64.10
2023-03-24T09:46:02.082Z,63.86
2023-03-24T09:48:39.698Z,63.60
2023-03-24T09:51:15.863Z,63.80
2023-03-24T09:54:06.644Z,63.81
2023-03-24T09:56:36.708Z,63.51
2023-03-24T09:59:07.340Z,63.58
2023-03-24T10:01:36.530Z,63.07
2023-03-24T10:04:05.133Z,63.40
2023-03-24T10:06:33.833Z,62.40
2023-03-24T10:09:23.638Z,61.87
2023-03-24T10:12:00.785Z,62.59
2023-03-24T10:14:46.122Z,62.95
2023-03-24T10:17:18.839Z,62.84
2023-03-24T10:20:07.783Z,61.32
2023-03-24T10:22:46.049Z,61.52
2023-03-24T10:25:23.439Z,61.32
2023-03-24T10:28:03.844Z,60.73
2023-03-24T10:30:34.863Z,60.96
2023-03-24T10:33:01.508Z,61.68
2023-03-24T10:35:42.053Z,61.04
2023-03-24T10:38:22.036Z,61.93
2023-03-24T10:40:54.252Z,61.49
2023-03-24T10:43:23.417Z,61.37
2023-03-24T10:45:53.248Z,59.72
2023-03-24T10:48:46.040Z,59.89
2023-03-24T10:51:16.915Z,59.80
2023-03-24T10:53:50.859Z,59.78
2023-03-24T10:56:42.119Z,60.09
2023-03-24T10:59:28.030Z,58.89
2023-03-24T11:02:22.659Z,59.84
2023-03-24T11:05:13.106Z,59.78
2023-03-24T11:07:42.802Z,58.83
2023-03-24T11:10:09.382Z,59.22
2023-03-24T11:12:39.131Z,58.60
2023-03-24T11:15:23.664Z,57.79
2023-03-24T11:17:56.929Z,58.10
2023-03-24T11:20:38.617Z,58.45
2023-03-24T11:23:11.486Z,58.39
2023-03-24T11:25:41.117Z,58.92
2023-03-24T11:28:16.772Z,58.37
2023-03-24T11:30:51.915Z,58.52
2023-03-24T11:33:34.578Z,57.88
2023-03-24T11:36:26.296Z,56.92
2023-03-24T11:39:13.013Z,56.55
2023-03-24T11:41:43.732Z,57.18
2023-03-24T11:44:26.063Z,56.56
2023-03-24T11:46:57.675Z,57.07
2023-03-24T11:49:30.697Z,57.19
2023-03-24T11:51:58.226Z,58.04
2023-03-24T11:54:32.470Z,57.54
2023-03-24T11:57:05.395Z,57.12
2023-03-24T11:59:52.335Z,56.38
2023-03-24T12:02:18.884Z,56.92
2023-03-24T12:05:05.024Z,55.89
2023-03-24T12:07:46.528Z,55.81
2023-03-24T12:10:19.759Z,55.28
2023-03-24T12:13:29.617Z,55.70
2023-03-24T12:16:01.936Z,55.57
2023-03-24T12:18:40.741Z,55.44
2023-03-24T12:21:24.525Z,56.01
2023-03-24T12:24:06.225Z,55.99
2023-03-24T12:26:35.801Z,56.59
2023-03-24T12:29:41.648Z,55.35
2023-03-24T12:32:36.586Z,54.99
2023-03-24T12:35:18.482Z,54.42
2023-03-24T12:37:45.024Z,54.86
2023-03-24T12:40:12.057Z,54.75
2023-03-24T12:42:46.999Z,54.57
2023-03-24T12:45:26.912Z,54.84
2023-03-24T12:48:05.857Z,54.91
2023-03-24T12:50:54.118Z,55.34
2023-03-24T12:53:23.322Z,55.59
2023-03-24T12:56:21.257Z,56.34
2023-03-24T12:59:04.056Z,55.77
2023-03-24T13:01:42.140Z,55.35
2023-03-24T13:04:31.210Z,55.11
2023-03-24T13:07:14.778Z,55.19
2023-03-24T13:09:46.180Z,54.15
2023-03-24T13:12:23.695Z,54.85
2023-03-24T13:15:05.529Z,55.15
2023-03-24T13:17:39.638Z,55.38
2023-03-24T13:20:12.675Z,55.88
2023-03-24T13:22:40.123Z,55.49
2023-03-24T13:25:21.046Z,56.64
2023-03-24T13:27:53.871Z,57.68
2023-03-24T13:30:31.528Z,60.15
2023-03-24T13:33:10.932Z,64.93
2023-03-24T13:35:56.541Z,65.63
2023-03-24T13:38:36.133Z,66.18
2023-03-24T13:41:05.861Z,65.78
2023-03-24T13:43:34.159Z,66.14
2023-03-24T13:46:04.109Z,65.81
2023-03-24T13:48:37.798Z,65.82
2023-03-24T13:51:08.978Z,66.20
2023-03-24T13:53:59.789Z,65.09
2023-03-24T13:56:31.490Z,65.22
2023-03-24T13:58:58.060Z,64.52
2023-03-24T14:01:33.148Z,61.89
2023-03-24T14:04:18.633Z,62.13
2023-03-24T14:06:57.027Z,60.26
2023-03-24T14:09:35.634Z,62.66
2023-03-24T14:12:22.570Z,65.57
2023-03-24T14:15:37.230Z,66.39
2023-03-24T14:18:37.903Z,67.58
2023-03-24T14:21:06.886Z,70.29
2023-03-24T14:23:43.106Z,69.79
2023-03-24T14:26:29.090Z,69.54
2023-03-24T14:29:00.429Z,70.41
2023-03-24T14:31:36.386Z,69.97
2023-03-24T14:34:17.419Z,69.36
2023-03-24T14:36:45.517Z,70.26
2023-03-24T14:39:31.107Z,70.69
2023-03-24T14:41:59.261Z,70.34
2023-03-24T14:44:49.742Z,73.21
2023-03-24T14:47:18.891Z,73.53
2023-03-24T14:49:47.343Z,75.49
2023-03-24T14:52:23.093Z,75.18
2023-03-24T14:55:06.043Z,73.99
2023-03-24T14:57:39.411Z,73.33
2023-03-24T15:00:23.963Z,72.81
2023-03-24T15:03:00.898Z,71.72
2023-03-24T15:05:29.895Z,71.10
2023-03-24T15:08:12.040Z,71.37
2023-03-24T15:10:41.667Z,70.88
2023-03-24T15:13:32.649Z,70.00
2023-03-24T15:16:02.279Z,70.36
2023-03-24T15:18:29.058Z,70.77
2023-03-24T15:20:55.898Z,70.43
2023-03-24T15:23:31.413Z,70.85
2023-03-24T15:25:58.155Z,70.70
2023-03-24T15:28:29.546Z,71.07
2023-03-24T15:30:59.539Z,71.72
2023-03-24T15:33:26.517Z,71.31
2023-03-24T15:35:58.847Z,71.29
2023-03-24T15:38:31.449Z,71.65
2023-03-24T15:41:10.058Z,71.47
2023-03-24T15:43:44.109Z,73.31
2023-03-24T15:46:25.898Z,75.59
2023-03-24T15:48:54.332Z,76.71
2023-03-24T15:51:51.475Z,78.16
2023-03-24T15:54:24.555Z,78.90
2023-03-24T15:57:13.475Z,79.16
2023-03-24T15:59:46.204Z,79.93
2023-03-24T16:02:25.722Z,79.23
2023-03-24T16:05:07.859Z,79.44
2023-03-24T16:07:37.770Z,79.28
2023-03-24T16:10:09.863Z,78.98
2023-03-24T16:12:37.163Z,78.67
2023-03-24T16:15:05.915Z,78.62
2023-03-24T16:17:33.172Z,79.67
2023-03-24T16:20:00.164Z,78.14
2023-03-24T16:22:27.455Z,78.32
2023-03-24T16:24:54.085Z,77.79
2023-03-24T16:27:23.347Z,76.81
2023-03-24T16:29:50.002Z,76.54
2023-03-24T16:32:17.179Z,76.40
2023-03-24T16:34:44.211Z,76.28
2023-03-24T16:37:10.808Z,75.58
2023-03-24T16:39:37.454Z,74.49
2023-03-24T16:42:04.154Z,74.09
2023-03-24T16:44:31.167Z,73.55
2023-03-24T16:46:57.894Z,73.73
2023-03-24T16:49:24.890Z,74.30
2023-03-24T16:51:52.987Z,74.71
2023-03-24T16:54:21.127Z,74.98
2023-03-24T16:56:47.950Z,74.96
2023-03-24T16:59:15.732Z,74.54
2023-03-24T17:01:46.600Z,74.32
2023-03-24T17:04:16.612Z,74.60
2023-03-24T17:06:49.261Z,74.36
2023-03-24T17:09:16.288Z,74.67
2023-03-24T17:11:48.170Z,74.25
2023-03-24T17:14:14.996Z,74.92
2023-03-24T17:16:44.593Z,74.31
2023-03-24T17:19:17.066Z,74.18
2023-03-24T17:21:51.350Z,73.98
2023-03-24T17:24:18.810Z,73.68
2023-03-24T17:26:45.367Z,73.37
2023-03-24T17:29:13.454Z,73.62
2023-03-24T17:31:40.723Z,72.91
2023-03-24T17:34:21.459Z,72.37
2023-03-24T17:36:50.842Z,72.37
2023-03-24T17:39:22.417Z,72.79
2023-03-24T17:41:49.188Z,72.57
2023-03-24T17:44:18.306Z,72.08
2023-03-24T17:46:44.998Z,72.21
2023-03-24T17:49:11.674Z,72.60
2023-03-24T17:51:38.395Z,72.65
2023-03-24T17:54:05.697Z,72.95
2023-03-24T17:56:32.664Z,73.01
2023-03-24T17:58:59.319Z,72.95
2023-03-24T18:01:29.824Z,73.55
2023-03-24T18:03:57.516Z,73.63
2023-03-24T18:06:24.317Z,73.94
2023-03-24T18:08:52.175Z,74.12
2023-03-24T18:11:19.259Z,74.38
2023-03-24T18:13:46.188Z,74.29
2023-03-24T18:16:21.319Z,74.80
2023-03-24T18:18:50.489Z,74.79
2023-03-24T18:21:18.256Z,74.52
2023-03-24T18:23:46.898Z,75.33
2023-03-24T18:26:15.407Z,75.16
2023-03-24T18:28:42.986Z,75.29
2023-03-24T18:31:12.898Z,75.56
2023-03-24T18:33:42.982Z,75.76
2023-03-24T18:36:10.784Z,75.84
2023-03-24T18:38:37.669Z,75.92
2023-03-24T18:41:06.910Z,76.08
2023-03-24T18:43:37.498Z,76.42
2023-03-24T18:46:09.488Z,76.26
2023-03-24T18:48:44.204Z,76.36
2023-03-24T18:51:11.433Z,76.99
2023-03-24T18:53:38.212Z,76.80
2023-03-24T18:56:06.523Z,76.50
2023-03-24T18:58:33.899Z,76.95
2023-03-24T19:01:06.986Z,76.49
2023-03-24T19:03:35.816Z,76.65
2023-03-24T19:06:07.152Z,76.58
2023-03-24T19:08:37.989Z,76.75
2023-03-24T19:11:04.994Z,76.66
2023-03-24T19:13:31.695Z,76.58
2023-03-24T19:15:58.346Z,76.61
2023-03-24T19:18:25.834Z,76.75
2023-03-24T19:20:57.581Z,76.80
2023-03-24T19:23:28.544Z,77.08
2023-03-24T19:25:56.350Z,77.61
2023-03-24T19:28:24.203Z,77.23
2023-03-24T19:30:51.062Z,77.52
2023-03-24T19:33:17.713Z,77.82
2023-03-24T19:35:47.860Z,77.59
2023-03-24T19:38:15.218Z,77.49
2023-03-24T19:40:45.151Z,77.30
2023-03-24T19:43:11.842Z,77.21
2023-03-24T19:45:43.070Z,77.59
2023-03-24T19:48:10.671Z,77.40
2023-03-24T19:50:37.519Z,77.55
2023-03-24T19:53:04.362Z,77.19
2023-03-24T19:55:31.550Z,77.80
2023-03-24T19:57:59.695Z,77.72
2023-03-24T20:00:26.513Z,78.03
2023-03-24T20:02:53.745Z,78.20
2023-03-24T20:05:20.773Z,78.15
2023-03-24T20:07:47.534Z,78.32
2023-03-24T20:10:14.180Z,78.65
2023-03-24T20:12:41.448Z,77.58
2023-03-24T20:15:08.560Z,76.54
2023-03-24T20:17:37.704Z,75.55
2023-03-24T20:20:07.462Z,74.67
2023-03-24T20:22:34.973Z,74.96
2023-03-24T20:25:01.611Z,74.80
2023-03-24T20:27:28.492Z,74.74
2023-03-24T20:29:55.089Z,73.87
2023-03-24T20:32:21.672Z,73.54
2023-03-24T20:34:49.250Z,73.04
2023-03-24T20:37:15.899Z,73.12
2023-03-24T20:39:43.690Z,73.03
2023-03-24T20:42:11.370Z,73.08
2023-03-24T20:44:38.033Z,72.94
2023-03-24T20:47:04.747Z,73.18
2023-03-24T20:49:32.602Z,73.00
2023-03-24T20:51:59.305Z,73.39
2023-03-24T20:54:26.194Z,73.60
2023-03-24T20:56:52.937Z,73.71
2023-03-24T20:59:19.648Z,73.62
2023-03-24T21:01:48.795Z,74.12
2023-03-24T21:04:17.657Z,74.69
2023-03-24T21:06:44.865Z,74.88
2023-03-24T21:09:11.785Z,75.02
2023-03-24T21:11:38.361Z,75.46
2023-03-24T21:14:05.018Z,75.45
2023-03-24T21:16:34.186Z,75.84
2023-03-24T21:19:03.895Z,75.99
2023-03-24T21:21:31.193Z,76.45
2023-03-24T21:23:58.239Z,76.86
2023-03-24T21:26:25.424Z,76.51
2023-03-24T21:28:53.120Z,76.81
2023-03-24T21:31:25.537Z,76.26
2023-03-24T21:33:56.013Z,76.08
2023-03-24T21:36:24.421Z,76.48
2023-03-24T21:38:52.232Z,76.87
2023-03-24T21:41:19.890Z,77.04
2023-03-24T21:43:51.351Z,77.15
2023-03-24T21:46:21.921Z,76.88
2023-03-24T21:48:51.563Z,77.44
2023-03-24T21:51:24.210Z,77.36
2023-03-24T21:53:51.947Z,77.28
2023-03-24T21:56:20.385Z,77.38
2023-03-24T21:58:47.652Z,77.05
2023-03-24T22:01:15.444Z,76.89
2023-03-24T22:03:42.137Z,76.49
2023-03-24T22:06:10.774Z,76.73
2023-03-24T22:08:39.188Z,76.41
2023-03-24T22:11:06.536Z,75.87
2023-03-24T22:13:34.152Z,74.76
2023-03-24T22:16:03.125Z,75.06
2023-03-24T22:18:32.125Z,74.82
2023-03-24T22:21:03.129Z,74.76
2023-03-24T22:23:36.190Z,75.29
2023-03-24T22:26:08.863Z,73.54
2023-03-24T22:28:36.268Z,73.28
2023-03-24T22:31:05.199Z,72.96
2023-03-24T22:33:32.276Z,73.42
2023-03-24T22:36:00.514Z,71.56
2023-03-24T22:38:28.012Z,71.56
2023-03-24T22:41:01.934Z,72.66
2023-03-24T22:43:29.752Z,75.81
2023-03-24T22:45:56.810Z,76.51
2023-03-24T22:48:24.116Z,76.59
2023-03-24T22:50:51.548Z,76.82
2023-03-24T22:53:18.172Z,77.14
2023-03-24T22:55:45.315Z,77.54
2023-03-24T22:58:13.639Z,77.47
2023-03-24T23:00:41.520Z,77.44
2023-03-24T23:03:08.671Z,76.85
2023-03-24T23:05:40.244Z,76.79
2023-03-24T23:08:07.725Z,76.64
2023-03-24T23:10:34.423Z,76.40
2023-03-24T23:13:01.355Z,76.52
2023-03-24T23:15:28.002Z,76.91
2023-03-24T23:17:54.702Z,76.49
2023-03-24T23:20:21.679Z,76.50
2023-03-24T23:22:48.338Z,76.24
2023-03-24T23:25:15.722Z,76.53
2023-03-24T23:27:42.480Z,76.33
2023-03-24T23:30:12.125Z,76.17
2023-03-24T23:32:41.221Z,76.31
2023-03-24T23:35:09.771Z,76.41
2023-03-24T23:37:36.802Z,76.38
2023-03-24T23:40:15.158Z,76.25
2023-03-24T23:42:45.035Z,76.28
2023-03-24T23:45:14.974Z,75.73
2023-03-24T23:47:42.898Z,75.56
2023-03-24T23:50:10.098Z,75.88
2023-03-24T23:52:36.964Z,75.61
2023-03-24T23:55:04.874Z,75.21
2023-03-24T23:57:31.942Z,75.84
